Terminal Aerodrome Forecast
Issued by NWS

Current Version | Previous Version | Graphics & Text | Print | Product List | Glossary On
Versions: 1 2 3 4 5 6 7 8 9 10 11 12 13 14 15 16 17 18 19 20 21 22 23 24 25 26
203
FTUS41 KILN 260750 AAA
TAFLCK
TAF AMD
KLCK 260750Z 2608/2706 25003KT 5SM BR SCT050
     FM261000 VRB03KT 5SM BR BKN015
     FM261400 31005KT P6SM SCT040
     FM270000 03003KT P6SM SCT250=

USA.gov is the U.S. government's official web portal to all federal, state and local government web resources and services.